Jefferson, Maryland
Current Conditions -  °F | °C
As of 12:20 AM on Monday 20 Oct 2014 (Local Time) from KFDK Reporting Station
Clear Clear  
Wind Chill: 40°   Ceiling: Unl
Heat Index: 43°   Visibility: 10mi
Dew Point: 36°   Wind: 5mph
Humidity: 76%   Direction: 210°SSW
Pressure: 30.14"   Gusts: NA
Location:  39.36°N, 77.53°W
Report Text: KFDK 200420Z AUTO 21004KT 10SM CLR 06/02 A3014 RMK AO2 LTG DSNT E
Loading
Personal Weather Stations






























Interactive Weather Map New forecast layout! Learn more

10-Day Weather Forecast

Advertisements
Track Severe Weather on mobile